createdAt,value
2022-12-06T00:02:15.085Z,102003.50
2022-12-06T00:07:19.845Z,102005.06
2022-12-06T00:12:24.042Z,101994.69
2022-12-06T00:17:27.865Z,101998.22
2022-12-06T00:22:34.077Z,101993.75
2022-12-06T00:27:39.685Z,101995.56
2022-12-06T00:32:43.453Z,101997.13
2022-12-06T00:37:45.160Z,101987.47
2022-12-06T00:42:49.896Z,101997.13
2022-12-06T00:47:51.568Z,101999.03
2022-12-06T00:52:55.418Z,102006.88
2022-12-06T00:57:57.147Z,101998.06
2022-12-06T01:02:58.853Z,102005.19
2022-12-06T01:08:04.146Z,102005.19
2022-12-06T01:13:06.547Z,102005.28
2022-12-06T01:18:08.186Z,102002.88
2022-12-06T01:23:12.796Z,101995.16
2022-12-06T01:28:14.483Z,101995.28
2022-12-06T01:33:18.477Z,101992.97
2022-12-06T01:38:20.203Z,101989.59
2022-12-06T01:43:48.449Z,101986.19
2022-12-06T01:48:58.955Z,101986.44
2022-12-06T01:54:02.404Z,101986.66
2022-12-06T01:59:06.434Z,101980.41
2022-12-06T02:04:10.629Z,101993.66
2022-12-06T02:09:16.065Z,101988.13
2022-12-06T02:14:24.640Z,101983.66
2022-12-06T02:19:59.608Z,101977.41
2022-12-06T02:25:34.351Z,101965.94
2022-12-06T02:30:50.112Z,101962.69
2022-12-06T02:36:00.745Z,101961.88
2022-12-06T02:41:12.668Z,101953.03
2022-12-06T02:46:18.651Z,101947.88
2022-12-06T02:51:20.732Z,101953.28
2022-12-06T02:56:26.330Z,101948.81
2022-12-06T03:01:33.360Z,101948.00
2022-12-06T03:06:44.519Z,101945.44
2022-12-06T03:11:48.895Z,101947.38
2022-12-06T03:17:00.520Z,101942.06
2022-12-06T03:22:09.387Z,101943.88
2022-12-06T03:27:16.752Z,101955.31
2022-12-06T03:32:21.207Z,101952.78
2022-12-06T03:37:27.079Z,101944.94
2022-12-06T03:42:34.488Z,101952.16
2022-12-06T03:47:47.352Z,101942.41
2022-12-06T03:52:54.016Z,101931.81
2022-12-06T03:58:01.800Z,101932.78
2022-12-06T04:03:04.539Z,101931.94
2022-12-06T04:08:06.289Z,101933.72
2022-12-06T04:13:08.857Z,101929.75
2022-12-06T04:18:14.154Z,101921.56
2022-12-06T04:23:17.563Z,101909.97
2022-12-06T04:28:39.100Z,101911.38
2022-12-06T04:33:59.096Z,101905.28
2022-12-06T04:39:01.251Z,101909.00
2022-12-06T04:44:06.835Z,101896.09
2022-12-06T04:49:10.984Z,101894.66
2022-12-06T04:54:15.069Z,101900.72
2022-12-06T04:59:20.210Z,101896.72
2022-12-06T05:04:22.649Z,101907.94
2022-12-06T05:09:26.691Z,101906.56
2022-12-06T05:14:28.560Z,101902.78
2022-12-06T05:19:32.623Z,101908.56
2022-12-06T05:24:39.085Z,101900.22
2022-12-06T05:29:43.101Z,101902.63
2022-12-06T05:34:47.200Z,101886.03
2022-12-06T05:39:48.864Z,101876.00
2022-12-06T05:44:52.845Z,101888.06
2022-12-06T05:49:57.380Z,101892.28
2022-12-06T05:55:00.053Z,101892.59
2022-12-06T06:00:02.427Z,101892.47
2022-12-06T06:05:11.547Z,101894.34
2022-12-06T06:10:18.101Z,101884.19
2022-12-06T06:15:22.262Z,101893.28
2022-12-06T06:20:24.055Z,101889.69
2022-12-06T06:25:30.572Z,101891.56
2022-12-06T06:30:34.382Z,101890.81
2022-12-06T06:35:44.069Z,101897.44
2022-12-06T06:40:51.122Z,101893.50
2022-12-06T06:45:56.642Z,101887.16
2022-12-06T06:51:11.530Z,101890.53
2022-12-06T06:56:13.408Z,101901.97
2022-12-06T07:01:23.201Z,101899.44
2022-12-06T07:06:27.374Z,101906.66
2022-12-06T07:11:32.122Z,101903.47
2022-12-06T07:16:33.965Z,101893.63
2022-12-06T07:21:35.978Z,101887.16
2022-12-06T07:26:43.292Z,101901.97
2022-12-06T07:31:45.951Z,101903.66
2022-12-06T07:36:47.661Z,101911.28
2022-12-06T07:42:07.847Z,101905.25
2022-12-06T07:47:27.470Z,101901.63
2022-12-06T07:52:38.059Z,101910.19
2022-12-06T07:57:43.411Z,101898.75
2022-12-06T08:02:48.162Z,101908.19
2022-12-06T08:07:49.961Z,101914.06
2022-12-06T08:12:54.466Z,101900.84
2022-12-06T08:17:56.258Z,101908.56
2022-12-06T08:23:00.267Z,101923.28
2022-12-06T08:28:04.649Z,101916.03
2022-12-06T08:33:09.336Z,101920.06
2022-12-06T08:38:13.402Z,101914.41
2022-12-06T08:43:16.541Z,101924.66
2022-12-06T08:48:19.414Z,101915.53
2022-12-06T08:53:23.773Z,101916.06
2022-12-06T08:58:28.037Z,101923.88
2022-12-06T09:03:32.230Z,101924.84
2022-12-06T09:08:36.891Z,101928.22
2022-12-06T09:13:39.524Z,101927.25
2022-12-06T09:18:41.885Z,101934.84
2022-12-06T09:23:44.256Z,101933.09
2022-12-06T09:28:53.798Z,101937.69
2022-12-06T09:33:58.826Z,101930.84
2022-12-06T09:39:08.229Z,101933.78
2022-12-06T09:44:31.387Z,101922.09
2022-12-06T09:49:38.781Z,101919.56
2022-12-06T09:54:54.534Z,101915.13
2022-12-06T10:00:22.579Z,101916.34
2022-12-06T10:06:06.407Z,101909.69
2022-12-06T10:11:12.703Z,101905.63
2022-12-06T10:16:23.303Z,101909.00
2022-12-06T10:21:45.699Z,101907.44
2022-12-06T10:26:57.527Z,101896.66
2022-12-06T10:32:18.043Z,101893.25
2022-12-06T10:37:42.565Z,101895.91
2022-12-06T10:43:09.656Z,101906.31
2022-12-06T10:48:28.853Z,101894.41
2022-12-06T10:53:33.348Z,101899.34
2022-12-06T10:58:49.360Z,101897.78
2022-12-06T11:04:09.992Z,101893.56
2022-12-06T11:09:24.774Z,101884.84
2022-12-06T11:14:35.767Z,101877.31
2022-12-06T11:19:45.718Z,101870.41
2022-12-06T11:25:22.157Z,101876.97
2022-12-06T11:30:28.832Z,101864.47
2022-12-06T11:35:31.507Z,101867.47
2022-12-06T11:40:48.414Z,101854.97
2022-12-06T11:45:52.440Z,101859.03
2022-12-06T11:50:55.093Z,101848.69
2022-12-06T11:56:30.251Z,101849.13
2022-12-06T12:01:46.599Z,101840.38
2022-12-06T12:06:49.021Z,101846.31
2022-12-06T12:12:02.542Z,101839.03
2022-12-06T12:17:15.294Z,101831.81
2022-12-06T12:22:35.807Z,101829.00
2022-12-06T12:27:47.819Z,101838.78
2022-12-06T12:33:13.461Z,101824.63
2022-12-06T12:38:25.834Z,101828.16
2022-12-06T12:43:32.763Z,101824.63
2022-12-06T12:48:43.931Z,101817.47
2022-12-06T12:53:46.213Z,101805.66
2022-12-06T12:58:52.558Z,101797.94
2022-12-06T13:04:01.179Z,101792.81
2022-12-06T13:09:06.047Z,101789.47
2022-12-06T13:14:22.195Z,101779.94
2022-12-06T13:19:31.542Z,101772.06
2022-12-06T13:24:38.900Z,101772.50
2022-12-06T13:29:48.443Z,101773.78
2022-12-06T13:34:58.678Z,101767.88
2022-12-06T13:40:05.915Z,101763.13
2022-12-06T13:45:27.568Z,101773.56
2022-12-06T13:50:34.316Z,101779.25
2022-12-06T13:55:48.493Z,101774.44
2022-12-06T14:00:50.806Z,101773.66
2022-12-06T14:11:27.320Z,101761.41
2022-12-06T14:16:31.443Z,101756.09
2022-12-06T14:21:39.219Z,101764.47
2022-12-06T14:26:47.543Z,101761.94
2022-12-06T14:31:51.566Z,101753.84
2022-12-06T14:36:58.030Z,101755.09
2022-12-06T14:42:33.450Z,101753.63
2022-12-06T14:47:40.918Z,101742.13
2022-12-06T14:53:01.177Z,101744.25
2022-12-06T14:58:17.719Z,101739.44
2022-12-06T15:03:25.663Z,101734.53
2022-12-06T15:08:27.546Z,101739.34
2022-12-06T15:13:32.008Z,101731.84
2022-12-06T15:18:55.064Z,101730.59
2022-12-06T15:23:59.755Z,101735.41
2022-12-06T15:29:01.526Z,101721.47
2022-12-06T15:34:23.405Z,101720.41
2022-12-06T15:39:26.179Z,101714.00
2022-12-06T15:44:30.132Z,101719.78
2022-12-06T15:49:32.956Z,101713.94
2022-12-06T15:54:39.758Z,101707.53
2022-12-06T15:59:41.549Z,101707.72
2022-12-06T16:04:45.569Z,101703.94
2022-12-06T16:09:48.015Z,101707.53
2022-12-06T16:14:53.499Z,101720.69
2022-12-06T16:20:13.895Z,101719.91
2022-12-06T16:25:16.588Z,101714.66
2022-12-06T16:30:31.053Z,101698.84
2022-12-06T16:35:32.836Z,101694.03
2022-12-06T16:40:35.148Z,101683.50
2022-12-06T16:45:44.812Z,101688.38
2022-12-06T16:50:47.420Z,101697.69
2022-12-06T16:55:51.498Z,101681.75
2022-12-06T17:00:54.716Z,101673.75
2022-12-06T17:05:59.784Z,101673.31
2022-12-06T17:11:22.579Z,101662.13
2022-12-06T17:16:24.377Z,101667.06
2022-12-06T17:21:28.754Z,101662.34
2022-12-06T17:26:34.397Z,101659.28
2022-12-06T17:31:39.589Z,101651.56
2022-12-06T17:36:47.953Z,101641.41
2022-12-06T17:42:08.427Z,101634.69
2022-12-06T17:47:10.112Z,101631.50
2022-12-06T17:52:13.023Z,101634.06
2022-12-06T17:57:18.782Z,101628.66
2022-12-06T18:02:24.781Z,101628.97
2022-12-06T18:07:29.070Z,101621.69
2022-12-06T18:12:35.163Z,101620.34
2022-12-06T18:17:37.060Z,101616.38
2022-12-06T18:22:38.732Z,101605.56
2022-12-06T18:27:40.491Z,101613.66
2022-12-06T18:32:44.413Z,101608.41
2022-12-06T18:37:46.197Z,101610.25
2022-12-06T18:42:53.019Z,101607.91
2022-12-06T18:47:58.729Z,101597.47
2022-12-06T18:53:06.199Z,101601.34
2022-12-06T18:58:07.965Z,101587.88
2022-12-06T19:03:17.124Z,101590.19
2022-12-06T19:08:18.916Z,101589.72
2022-12-06T19:13:20.601Z,101602.59
2022-12-06T19:18:22.362Z,101585.63
2022-12-06T19:23:28.675Z,101582.78
2022-12-06T19:28:38.601Z,101582.53
2022-12-06T19:33:43.575Z,101586.88
2022-12-06T19:38:50.263Z,101583.13
2022-12-06T19:44:15.345Z,101572.66
2022-12-06T19:49:23.279Z,101567.38
2022-12-06T19:54:31.317Z,101573.38
2022-12-06T19:59:39.321Z,101565.09
2022-12-06T20:04:46.482Z,101556.31
2022-12-06T20:09:48.202Z,101549.31
2022-12-06T20:14:52.232Z,101555.84
2022-12-06T20:20:01.408Z,101543.09
2022-12-06T20:25:03.538Z,101528.19
2022-12-06T20:30:06.396Z,101528.19
2022-12-06T20:35:11.468Z,101517.09
2022-12-06T20:40:13.781Z,101522.28
2022-12-06T20:45:20.421Z,101510.25
2022-12-06T20:50:25.694Z,101486.91
2022-12-06T20:55:29.801Z,101507.34
2022-12-06T21:00:34.072Z,101494.38
2022-12-06T21:05:45.042Z,101504.72
2022-12-06T21:11:20.708Z,101500.38
2022-12-06T21:16:13.560Z,101484.41
2022-12-06T21:21:25.852Z,101477.41
2022-12-06T21:26:28.497Z,101477.50
2022-12-06T21:31:34.302Z,101472.28
2022-12-06T21:36:36.984Z,101465.38
2022-12-06T21:41:41.332Z,101477.03
2022-12-06T21:46:45.603Z,101496.47
2022-12-06T21:51:47.491Z,101473.16
2022-12-06T21:56:51.858Z,101479.81
2022-12-06T22:01:54.836Z,101483.91
2022-12-06T22:06:57.676Z,101472.25
2022-12-06T22:12:01.706Z,101471.13
2022-12-06T22:17:05.620Z,101461.56
2022-12-06T22:22:10.733Z,101460.78
2022-12-06T22:27:16.708Z,101461.09
2022-12-06T22:32:18.568Z,101467.06
2022-12-06T22:37:28.243Z,101472.63
2022-12-06T22:42:33.513Z,101473.09
2022-12-06T22:47:37.997Z,101462.56
2022-12-06T22:52:42.864Z,101447.31
2022-12-06T22:57:46.997Z,101442.31
2022-12-06T23:02:48.873Z,101445.16
2022-12-06T23:07:50.604Z,101445.97
2022-12-06T23:12:52.278Z,101466.38
2022-12-06T23:17:56.428Z,101438.16
2022-12-06T23:22:58.080Z,101450.34
2022-12-06T23:28:02.505Z,101450.09
2022-12-06T23:33:06.791Z,101445.25
2022-12-06T23:38:10.818Z,101445.06
2022-12-06T23:43:15.094Z,101434.22
2022-12-06T23:48:21.278Z,101424.78
2022-12-06T23:53:25.921Z,101422.59
2022-12-06T23:58:29.335Z,101406.88
